^^
MeteoGriva-Weather Station Historical Data
Daily Summary for August 9, 2020 Units:  English    Metric   Both
Daily Weekly Monthly Yearly Custom
  High: Low: Average:
Temperature: 47.1 °F 29.8 °F 38.1 °F
Dew Point: 29.1 °F 19.2 °F 24.1 °F
Humidity: 67% 48% 57%
Wind Speed: 3mph 0mph 0.1mph
Wind Gust: 10.1mph - -
Wind- - SSE
Pressure: 30.4 in 30.2 in -
Precipitation: 0 in    
Historical Graphs
 
 
Tabular Data for August 9, 2020
Time Temperature Dew Point Pressure Wind Wind Speed Wind Gust Humidity Rainfall Rate (Hourly) solar
00:04 36 °F 20.1 °F 30.4 in Calm     52.2% 0 in 0 W/m2
00:09 35.8 °F 20.3 °F 30.4 in Calm     53% 0 in 0 W/m2
00:14 35.8 °F 20.3 °F 30.4 in Calm     53% 0 in 0 W/m2
00:19 35.6 °F 20.1 °F 30.4 in Calm     52.9% 0 in 0 W/m2
00:24 35.2 °F 20.1 °F 30.4 in Calm     53.8% 0 in 0 W/m2
00:29 35.2 °F 20.1 °F 30.4 in Calm     53.7% 0 in 0 W/m2
00:34 35.1 °F 19.9 °F 30.4 in Calm     53.7% 0 in 0 W/m2
00:39 35.1 °F 20.1 °F 30.4 in Calm     54% 0 in 0 W/m2
00:44 35.8 °F 20.3 °F 30.4 in Calm     52.9% 0 in 0 W/m2
00:49 36 °F 20.1 °F 30.4 in Calm     52% 0 in 0 W/m2
00:54 36 °F 19.9 °F 30.4 in Calm     51.7% 0 in 0 W/m2
00:59 36 °F 19.6 °F 30.4 in Calm     51% 0 in 0 W/m2
01:04 36.3 °F 20.1 °F 30.4 in Calm     51.4% 0 in 0 W/m2
01:09 36.3 °F 20.3 °F 30.4 in Calm     52% 0 in 0 W/m2
01:14 36.3 °F 20.7 °F 30.4 in Calm     52.7% 0 in 0 W/m2
01:19 36.3 °F 20.7 °F 30.4 in Calm     52.7% 0 in 0 W/m2
01:24 35.8 °F 20.3 °F 30.4 in Calm     53% 0 in 0 W/m2
01:29 35.8 °F 20.5 °F 30.4 in Calm     53.4% 0 in 0 W/m2
01:34 35.6 °F 21.2 °F 30.4 in Calm     55.4% 0 in 0 W/m2
01:39 35.2 °F 21.2 °F 30.4 in Calm     56% 0 in 0 W/m2
01:44 34.3 °F 20.3 °F 30.4 in Calm     56% 0 in 0 W/m2
01:49 34 °F 19.8 °F 30.4 in Calm     55.3% 0 in 0 W/m2
01:54 34.2 °F 19.9 °F 30.4 in Calm     55.7% 0 in 0 W/m2
01:59 34.2 °F 19.9 °F 30.4 in Calm     55.2% 0 in 0 W/m2
02:04 34.3 °F 20.3 °F 30.4 in Calm     56.1% 0 in 0 W/m2
02:09 34.3 °F 19.8 °F 30.4 in Calm     55% 0 in 0 W/m2
02:14 34.3 °F 20.1 °F 30.4 in Calm     55.8% 0 in 0 W/m2
02:19 34.3 °F 20.3 °F 30.4 in Calm     56% 0 in 0 W/m2
02:24 34.5 °F 20.3 °F 30.4 in Calm     55.9% 0 in 0 W/m2
02:29 34.3 °F 20.3 °F 30.4 in Calm     56% 0 in 0 W/m2
02:34 34.3 °F 20.5 °F 30.4 in Calm     56.7% 0 in 0 W/m2
02:39 34.3 °F 20.5 °F 30.4 in Calm     56.7% 0 in 0 W/m2
02:44 34.3 °F 20.1 °F 30.4 in Calm     55.5% 0 in 0 W/m2
02:49 34.5 °F 20.1 °F 30.4 in Calm     55.3% 0 in 0 W/m2
02:54 34.5 °F 20.5 °F 30.4 in Calm     56% 0 in 0 W/m2
02:59 34.3 °F 20.8 °F 30.4 in Calm     57.2% 0 in 0 W/m2
03:04 34 °F 20.8 °F 30.4 in Calm     58% 0 in 0 W/m2
03:09 33.6 °F 20.3 °F 30.4 in Calm     57.9% 0 in 0 W/m2
03:14 33.6 °F 20.5 °F 30.4 in Calm     58.1% 0 in 0 W/m2
03:19 33.6 °F 20.5 °F 30.4 in Calm     58% 0 in 0 W/m2
03:24 33.4 °F 20.5 °F 30.4 in Calm     58% 0 in 0 W/m2
03:29 33.4 °F 20.3 °F 30.4 in Calm     58% 0 in 0 W/m2
03:34 33.4 °F 20.3 °F 30.4 in Calm     58% 0 in 0 W/m2
03:39 33.3 °F 20.5 °F 30.4 in Calm     58.8% 0 in 0 W/m2
03:44 33.1 °F 20.3 °F 30.4 in Calm     59% 0 in 0 W/m2
03:49 32.9 °F 19.9 °F 30.4 in Calm     58.6% 0 in 0 W/m2
03:54 32.9 °F 19.9 °F 30.4 in Calm     58.5% 0 in 0 W/m2
03:59 32.9 °F 20.1 °F 30.4 in Calm     59% 0 in 0 W/m2
04:04 33.1 °F 20.1 °F 30.4 in Calm     58.6% 0 in 0 W/m2
04:09 33.3 °F 19.9 °F 30.4 in Calm     57.3% 0 in 0 W/m2
04:14 33.3 °F 19.9 °F 30.4 in Calm     57.3% 0 in 0 W/m2
04:19 33.3 °F 20.1 °F 30.4 in Calm     58% 0 in 0 W/m2
04:24 33.3 °F 20.1 °F 30.4 in Calm     58% 0 in 0 W/m2
04:29 33.3 °F 20.1 °F 30.4 in Calm     58% 0 in 0 W/m2
04:34 33.3 °F 20.5 °F 30.4 in Calm     58.8% 0 in 0 W/m2
04:39 33.3 °F 20.7 °F 30.4 in Calm     60% 0 in 0 W/m2
04:44 32.9 °F 20.5 °F 30.4 in Calm     60% 0 in 0 W/m2
04:49 32.5 °F 19.9 °F 30.4 in Calm     59.7% 0 in 0 W/m2
04:54 32.5 °F 19.8 °F 30.4 in Calm     59% 0 in 0 W/m2
04:59 32.5 °F 19.8 °F 30.4 in Calm     58.8% 0 in 0 W/m2
05:04 33.3 °F 19.6 °F 30.4 in Calm     56.8% 0 in 0 W/m2
05:09 34.2 °F 20.5 °F 30.4 in Calm     56.7% 0 in 0 W/m2
05:14 34.2 °F 21 °F 30.4 in Calm     58.6% 0 in 0 W/m2
05:19 33.8 °F 21.2 °F 30.4 in Calm     59.6% 0 in 0 W/m2
05:24 33.3 °F 20.8 °F 30.4 in Calm     60% 0 in 0 W/m2
05:29 32.4 °F 20.3 °F 30.4 in Calm     60.8% 0 in 0 W/m2
05:34 32.4 °F 20.5 °F 30.4 in Calm     61% 0 in 0 W/m2
05:39 32.4 °F 20.7 °F 30.4 in Calm     62% 0 in 0 W/m2
05:44 31.6 °F 20.8 °F 30.4 in Calm     64.3% 0 in 0 W/m2
05:49 30.6 °F 20.5 °F 30.4 in Calm     65.9% 0 in 0 W/m2
05:54 30.6 °F 20.8 °F 30.4 in Calm     66.9% 0 in 0 W/m2
05:59 30.4 °F 20.7 °F 30.4 in Calm     67% 0 in 0 W/m2
06:04 30.2 °F 20.5 °F 30.4 in Calm     67% 0 in 0 W/m2
06:09 29.8 °F 20.3 °F 30.4 in Calm     66.6% 0 in 0 W/m2
06:14 30 °F 20.1 °F 30.4 in Calm     66% 0 in 0 W/m2
06:19 29.8 °F 19.9 °F 30.4 in Calm     66% 0 in 0 W/m2
06:24 29.8 °F 19.9 °F 30.4 in Calm     66% 0 in 0 W/m2
06:29 29.8 °F 19.4 °F 30.4 in Calm     64.6% 0 in 0 W/m2
06:34 29.8 °F 19.2 °F 30.4 in Calm     64% 0 in 0 W/m2
06:39 29.8 °F 19.4 °F 30.4 in Calm     64.7% 0 in 0 W/m2
06:44 30 °F 19.4 °F 30.4 in Calm     64% 0 in 0 W/m2
06:49 30 °F 19.8 °F 30.4 in Calm     64.7% 0 in 0 W/m2
06:54 30 °F 19.8 °F 30.4 in Calm     65% 0 in 0 W/m2
06:59 30 °F 19.6 °F 30.4 in Calm     64.4% 0 in 0 W/m2
07:04 30 °F 19.4 °F 30.4 in Calm     64% 0 in 0 W/m2
07:09 30.2 °F 19.8 °F 30.4 in Calm     64.8% 0 in 0 W/m2
07:14 30.2 °F 19.6 °F 30.4 in Calm     64.2% 0 in 0 W/m2
07:19 30.2 °F 19.9 °F 30.4 in Calm     65.2% 0 in 0 W/m2
07:24 30.2 °F 19.9 °F 30.4 in Calm     64.9% 0 in 0 W/m2
07:29 30.7 °F 19.9 °F 30.4 in Calm     64% 0 in 0 W/m2
07:34 30.7 °F 19.8 °F 30.4 in Calm     63.8% 0 in 0 W/m2
07:39 30.7 °F 19.8 °F 30.4 in Calm     63.6% 0 in 0 W/m2
07:44 30.7 °F 20.3 °F 30.4 in Calm     64.9% 0 in 0 W/m2
07:49 30.7 °F 20.3 °F 30.4 in Calm     64.9% 0 in 0 W/m2
07:54 30.9 °F 20.1 °F 30.4 in Calm     64% 0 in 0 W/m2
07:59 30.9 °F 20.1 °F 30.4 in Calm     64% 0 in 2 W/m2
08:04 30.9 °F 20.1 °F 30.4 in Calm     64% 0 in 5 W/m2
08:09 31.5 °F 20.5 °F 30.4 in Calm     63.5% 0 in 9 W/m2
08:14 31.6 °F 20.3 °F 30.4 in Calm     62.3% 0 in 14 W/m2
08:19 31.8 °F 19.9 °F 30.4 in Calm     61% 0 in 21 W/m2
08:24 32 °F 19.9 °F 30.4 in Calm     60.1% 0 in 25 W/m2
08:29 33.6 °F 21.2 °F 30.4 in Calm     60% 0 in 30 W/m2
08:34 33.6 °F 21 °F 30.4 in Calm     59.4% 0 in 34 W/m2
08:39 33.6 °F 20.8 °F 30.4 in Calm     59% 0 in 38 W/m2
08:44 34 °F 20.8 °F 30.4 in Calm     58.4% 0 in 43 W/m2
08:49 36.7 °F 23 °F 30.4 in Calm     57.4% 0 in 47 W/m2
08:54 36.9 °F 22.1 °F 30.4 in Calm     54.8% 0 in 50 W/m2
08:59 37.2 °F 21.2 °F 30.4 in Calm     52% 0 in 54 W/m2
09:04 37.8 °F 21.9 °F 30.4 in Calm     52.4% 0 in 56 W/m2
09:09 38.8 °F 22.6 °F 30.4 in Calm     52% 0 in 59 W/m2
09:14 39 °F 22.8 °F 30.4 in Calm     52% 0 in 62 W/m2
09:19 39.2 °F 23 °F 30.4 in Calm     52% 0 in 64 W/m2
09:24 39.2 °F 23 °F 30.4 in Calm     51.9% 0 in 66 W/m2
09:29 39.7 °F 23.2 °F 30.4 in Calm     51% 0 in 68 W/m2
09:34 39.9 °F 23 °F 30.4 in Calm     50.4% 0 in 70 W/m2
09:39 40.3 °F 22.5 °F 30.4 in Calm     49% 0 in 72 W/m2
09:44 40.5 °F 22.6 °F 30.4 in Calm     48.8% 0 in 73 W/m2
09:49 40.6 °F 23 °F 30.4 in Calm     48.9% 0 in 74 W/m2
09:54 40.8 °F 23.2 °F 30.4 in Calm     48.9% 0 in 76 W/m2
09:59 40.6 °F 24.3 °F 30.4 in Calm     51.4% 0 in 76 W/m2
10:04 40.6 °F 23.5 °F 30.4 in Calm     50.1% 0 in 78 W/m2
10:09 41.7 °F 23.5 °F 30.4 in Calm     48.1% 0 in 79 W/m2
10:14 42.3 °F 23.9 °F 30.4 in South 0.4 mph 2.5 mph 48% 0 in 80 W/m2
10:19 42.3 °F 24.3 °F 30.4 in SSE 0.7 mph 2.5 mph 48.9% 0 in 79 W/m2
10:24 42.3 °F 24.3 °F 30.4 in SSE 0.1 mph 2.5 mph 48.7% 0 in 79 W/m2
10:29 42.4 °F 24.6 °F 30.4 in Calm   2.5 mph 49% 0 in 80 W/m2
10:34 42.4 °F 24.6 °F 30.4 in SE 0.7 mph 2.5 mph 49% 0 in 80 W/m2
10:39 42.6 °F 25.2 °F 30.4 in SE 1.1 mph 4.9 mph 49.8% 0 in 80 W/m2
10:44 42.6 °F 25.5 °F 30.4 in SSE 0.2 mph 4.9 mph 50.3% 0 in 80 W/m2
10:49 43.2 °F 26.1 °F 30.4 in SE 0.5 mph 4.9 mph 50.4% 0 in 81 W/m2
10:54 43.3 °F 26.1 °F 30.4 in SE 0.3 mph 7.6 mph 50.3% 0 in 81 W/m2
10:59 43.2 °F 26.1 °F 30.4 in SE 0.3 mph 2.5 mph 50.8% 0 in 82 W/m2
11:04 43.2 °F 26.2 °F 30.4 in Calm     51.1% 0 in 84 W/m2
11:09 41.7 °F 26.4 °F 30.4 in SE 0.2 mph 4.9 mph 54% 0 in 86 W/m2
11:14 41.5 °F 26.2 °F 30.4 in SSE 0.9 mph 7.6 mph 54.1% 0 in 88 W/m2
11:19 41.7 °F 26.4 °F 30.4 in SSE 1.4 mph 7.6 mph 54.3% 0 in 90 W/m2
11:24 41.7 °F 26.8 °F 30.4 in South 1.9 mph 7.6 mph 55.1% 0 in 93 W/m2
11:29 41.9 °F 27 °F 30.4 in SSW 0.4 mph 7.6 mph 55.1% 0 in 95 W/m2
11:34 41.9 °F 27 °F 30.4 in SSE 0.2 mph 4.9 mph 55% 0 in 99 W/m2
11:39 41.9 °F 27 °F 30.4 in SE 1.1 mph 4.9 mph 55% 0 in 101 W/m2
11:44 41.9 °F 27 °F 30.4 in ESE 0.5 mph 4.9 mph 55% 0 in 105 W/m2
11:49 41.5 °F 26.8 °F 30.4 in Calm   4.9 mph 55.6% 0 in 104 W/m2
11:54 41.4 °F 26.6 °F 30.4 in SE 0.9 mph 10.1 mph 55.3% 0 in 82 W/m2
11:59 41.4 °F 26.4 °F 30.4 in Calm     55.2% 0 in 79 W/m2
12:04 41.4 °F 26.8 °F 30.4 in East 0.1 mph 2.5 mph 55.8% 0 in 79 W/m2
12:09 41.4 °F 26.2 °F 30.4 in East 0.1 mph 4.9 mph 54.7% 0 in 78 W/m2
12:14 41.4 °F 26.2 °F 30.4 in Calm     54.3% 0 in 86 W/m2
12:19 41.7 °F 26.1 °F 30.4 in Calm   2.5 mph 53.7% 0 in 127 W/m2
12:24 42.1 °F 26.4 °F 30.4 in Calm     53.4% 0 in 147 W/m2
12:29 42.4 °F 27 °F 30.3 in Calm     54% 0 in 150 W/m2
12:34 42.4 °F 27.5 °F 30.3 in NE 0.2 mph 4.9 mph 55% 0 in 160 W/m2
12:39 42.3 °F 27.5 °F 30.3 in Calm   4.9 mph 55.8% 0 in 170 W/m2
12:44 42.1 °F 27 °F 30.3 in Calm     54.4% 0 in 180 W/m2
12:49 42.8 °F 27 °F 30.3 in Calm     53.3% 0 in 187 W/m2
12:54 43.3 °F 27.7 °F 30.3 in Calm     53.7% 0 in 203 W/m2
12:59 43.3 °F 27.1 °F 30.3 in SSE 0.7 mph 4.9 mph 52.7% 0 in 217 W/m2
13:04 43.3 °F 26.6 °F 30.3 in SSE 0.8 mph 4.9 mph 51.1% 0 in 231 W/m2
13:09 44.8 °F 27.1 °F 30.3 in SE 0.4 mph 4.9 mph 49.8% 0 in 240 W/m2
13:14 45.5 °F 27.5 °F 30.3 in SSE 0.7 mph 4.9 mph 49% 0 in 250 W/m2
13:19 45.5 °F 27.9 °F 30.3 in South 0.4 mph 2.5 mph 49.9% 0 in 260 W/m2
13:24 45.5 °F 27.9 °F 30.3 in SSE 1.2 mph 4.9 mph 49.7% 0 in 269 W/m2
13:29 45.3 °F 27.9 °F 30.3 in SE 1.9 mph 4.9 mph 50% 0 in 276 W/m2
13:34 45.1 °F 27.7 °F 30.3 in SSE 0.6 mph 4.9 mph 50% 0 in 282 W/m2
13:39 45.1 °F 27.7 °F 30.3 in SE 1 mph 7.6 mph 50% 0 in 288 W/m2
13:44 45.1 °F 27.1 °F 30.3 in SSE 0.4 mph 7.6 mph 49% 0 in 295 W/m2
13:49 45.9 °F 28 °F 30.3 in SE 0.8 mph 4.9 mph 49.6% 0 in 297 W/m2
13:54 46.2 °F 28 °F 30.3 in SE 1 mph 4.9 mph 49% 0 in 301 W/m2
13:59 46 °F 27.9 °F 30.3 in SSE 1.2 mph 4.9 mph 49% 0 in 301 W/m2
14:04 46 °F 28.4 °F 30.3 in SSE 1.3 mph 4.9 mph 50% 0 in 302 W/m2
14:09 46 °F 28.4 °F 30.3 in SSE 0.9 mph 4.9 mph 50.2% 0 in 301 W/m2
14:14 46 °F 28.4 °F 30.3 in SSE 0.9 mph 4.9 mph 50% 0 in 301 W/m2
14:19 46 °F 28.2 °F 30.3 in SW 1 mph 4.9 mph 49.8% 0 in 301 W/m2
14:24 46 °F 28 °F 30.3 in SSE 1.2 mph 7.6 mph 49.3% 0 in 301 W/m2
14:29 46.2 °F 28 °F 30.3 in SSE 0.7 mph 7.6 mph 49% 0 in 301 W/m2
14:34 46.2 °F 28 °F 30.3 in SSE 0.5 mph 7.6 mph 49.1% 0 in 299 W/m2
14:39 46.2 °F 28.4 °F 30.3 in SE 0.4 mph 4.9 mph 49.8% 0 in 291 W/m2
14:44 46.2 °F 28.2 °F 30.3 in SSE 0.1 mph 4.9 mph 49.3% 0 in 292 W/m2
14:49 46 °F 28.2 °F 30.3 in SE 0.1 mph 4.9 mph 49.8% 0 in 260 W/m2
14:54 45.5 °F 27.9 °F 30.3 in SE 0.3 mph 4.9 mph 49.9% 0 in 285 W/m2
14:59 45.7 °F 27.9 °F 30.3 in Calm     49.6% 0 in 283 W/m2
15:04 45.9 °F 27.9 °F 30.3 in Calm   2.5 mph 49% 0 in 281 W/m2
15:09 46.2 °F 27.9 °F 30.3 in Calm     48.3% 0 in 276 W/m2
15:14 46.8 °F 28.6 °F 30.3 in Calm     48.9% 0 in 273 W/m2
15:19 46.9 °F 28.2 °F 30.3 in South 0.2 mph 2.5 mph 48.1% 0 in 266 W/m2
15:24 46.9 °F 28.2 °F 30.3 in Calm   2.5 mph 48% 0 in 262 W/m2
15:29 47.1 °F 28.4 °F 30.3 in Calm   2.5 mph 48% 0 in 256 W/m2
15:34 47.1 °F 28.8 °F 30.3 in SSW 0.2 mph 2.5 mph 48.8% 0 in 249 W/m2
15:39 46.9 °F 28.8 °F 30.3 in South 0.1 mph 4.9 mph 49% 0 in 235 W/m2
15:44 46.9 °F 28.9 °F 30.2 in South 0.9 mph 7.6 mph 49.3% 0 in 230 W/m2
15:49 46.6 °F 29.1 °F 30.2 in South 3 mph 7.6 mph 50.2% 0 in 208 W/m2
15:54 45.5 °F 28.4 °F 30.2 in SSW 0.9 mph 4.9 mph 51.1% 0 in 186 W/m2
15:59 45.3 °F 28.8 °F 30.3 in South 0.4 mph 4.9 mph 52.2% 0 in 48 W/m2
16:04 45.1 °F 28.9 °F 30.3 in South 0.1 mph 4.9 mph 53% 0 in 46 W/m2
16:09 44.6 °F 28.8 °F 30.3 in Calm   4.9 mph 53.4% 0 in 44 W/m2
16:14 43.3 °F 27.9 °F 30.3 in Calm     54% 0 in 42 W/m2
16:19 43.3 °F 27.9 °F 30.3 in Calm     54.1% 0 in 38 W/m2
16:24 43.3 °F 28 °F 30.3 in Calm     55% 0 in 35 W/m2
16:29 42.8 °F 28.2 °F 30.3 in Calm     55.9% 0 in 31 W/m2
16:34 41.5 °F 27.3 °F 30.3 in Calm     56.4% 0 in 28 W/m2
16:39 41.5 °F 27.9 °F 30.3 in Calm     58% 0 in 25 W/m2
16:44 41.4 °F 28 °F 30.3 in Calm     59% 0 in 22 W/m2
16:49 41.4 °F 27.7 °F 30.2 in Calm     58.1% 0 in 20 W/m2
16:54 40.6 °F 27.5 °F 30.2 in Calm     58.9% 0 in 17 W/m2
16:59 40.6 °F 27.5 °F 30.2 in Calm     58.9% 0 in 13 W/m2
17:04 40.6 °F 27.3 °F 30.2 in Calm     58.7% 0 in 11 W/m2
17:09 40.5 °F 27.7 °F 30.2 in Calm     59.9% 0 in 8 W/m2
17:14 39.9 °F 27.1 °F 30.3 in Calm     59.9% 0 in 5 W/m2
17:19 39.9 °F 27.1 °F 30.3 in Calm     59.9% 0 in 3 W/m2
17:24 39.9 °F 26.8 °F 30.3 in Calm     59.2% 0 in 0 W/m2
17:29 39.9 °F 26.8 °F 30.3 in Calm     59.1% 0 in 0 W/m2
17:34 39.9 °F 26.8 °F 30.3 in Calm     58.8% 0 in 0 W/m2
17:39 39.9 °F 27.1 °F 30.3 in Calm     60.1% 0 in 0 W/m2
17:44 39.7 °F 27.1 °F 30.3 in Calm     60.4% 0 in 0 W/m2
17:49 39.7 °F 27 °F 30.3 in Calm     60.1% 0 in 0 W/m2
17:54 39.4 °F 26.6 °F 30.3 in Calm     60% 0 in 0 W/m2
17:59 39.4 °F 26.6 °F 30.3 in Calm   2.5 mph 60% 0 in 0 W/m2
18:04 39.4 °F 26.6 °F 30.3 in Calm     59.9% 0 in 0 W/m2
18:09 39.4 °F 26.2 °F 30.3 in Calm     58.9% 0 in 0 W/m2
18:14 40.1 °F 26.6 °F 30.3 in Calm     58% 0 in 0 W/m2
18:19 40.1 °F 26.6 °F 30.3 in Calm   2.5 mph 58.1% 0 in 0 W/m2
18:24 39.9 °F 27 °F 30.3 in NNW 0.4 mph 4.9 mph 59% 0 in 0 W/m2
18:29 39.9 °F 26.8 °F 30.3 in NNW 0.6 mph 4.9 mph 59% 0 in 0 W/m2
18:34 39.9 °F 26.8 °F 30.3 in NW 0.3 mph 4.9 mph 59% 0 in 0 W/m2
18:39 39.7 °F 27 °F 30.3 in Calm     59.8% 0 in 0 W/m2
18:44 39.7 °F 27 °F 30.3 in Calm     59.8% 0 in 0 W/m2
18:49 39.7 °F 26.6 °F 30.3 in Calm     59% 0 in 0 W/m2
18:54 39.6 °F 26.4 °F 30.3 in Calm     59% 0 in 0 W/m2
18:59 39.6 °F 26.6 °F 30.3 in Calm     59.3% 0 in 0 W/m2
19:04 39.4 °F 27 °F 30.3 in Calm     60.7% 0 in 0 W/m2
19:09 39.4 °F 26.6 °F 30.3 in Calm     60.2% 0 in 0 W/m2
19:14 38.7 °F 26.2 °F 30.3 in Calm     60.8% 0 in 0 W/m2
19:19 38.5 °F 25.3 °F 30.3 in Calm     59.1% 0 in 0 W/m2
19:24 38.7 °F 25.5 °F 30.3 in Calm     59% 0 in 0 W/m2
19:29 38.8 °F 25.3 °F 30.3 in Calm     58% 0 in 0 W/m2
19:34 39.6 °F 25.9 °F 30.3 in Calm     57.7% 0 in 0 W/m2
19:39 39.7 °F 25.9 °F 30.3 in Calm     57.3% 0 in 0 W/m2
19:44 39.6 °F 26.1 °F 30.3 in Calm     58% 0 in 0 W/m2
19:49 39.6 °F 26.1 °F 30.3 in Calm     57.9% 0 in 0 W/m2
19:54 39.2 °F 25.7 °F 30.3 in Calm     58.2% 0 in 0 W/m2
19:59 39 °F 25.9 °F 30.3 in Calm     59% 0 in 0 W/m2
20:04 39 °F 25.9 °F 30.3 in Calm     59% 0 in 0 W/m2
20:09 38.8 °F 25.5 °F 30.3 in Calm     58.4% 0 in 0 W/m2
20:14 39 °F 25.5 °F 30.3 in Calm     58% 0 in 0 W/m2
20:19 39 °F 25.7 °F 30.3 in Calm     58.3% 0 in 0 W/m2
20:24 39 °F 25.9 °F 30.3 in Calm     58.8% 0 in 0 W/m2
20:29 39 °F 25.5 °F 30.3 in Calm     58% 0 in 0 W/m2
20:34 39 °F 25.5 °F 30.3 in Calm     58% 0 in 0 W/m2
20:39 39 °F 25.7 °F 30.3 in Calm     58.7% 0 in 0 W/m2
20:44 39 °F 25.9 °F 30.3 in Calm     59% 0 in 0 W/m2
20:49 39 °F 25.9 °F 30.3 in Calm     58.9% 0 in 0 W/m2
20:54 38.8 °F 25.7 °F 30.3 in Calm     58.9% 0 in 0 W/m2
20:59 38.8 °F 25.3 °F 30.3 in Calm     58.1% 0 in 0 W/m2
21:04 38.8 °F 25.7 °F 30.3 in Calm     59% 0 in 0 W/m2
21:09 38.7 °F 25.5 °F 30.3 in Calm     59% 0 in 0 W/m2
21:14 39 °F 25.5 °F 30.3 in Calm     58.1% 0 in 0 W/m2
21:19 39.2 °F 25.5 °F 30.3 in Calm     57.6% 0 in 0 W/m2
21:24 39 °F 26.1 °F 30.3 in Calm     59.6% 0 in 0 W/m2
21:29 38.8 °F 26.1 °F 30.3 in Calm     60% 0 in 0 W/m2
21:34 37.9 °F 25.7 °F 30.3 in Calm     61% 0 in 0 W/m2
21:39 37.4 °F 25.3 °F 30.3 in Calm     61.6% 0 in 0 W/m2
21:44 37.4 °F 25.2 °F 30.3 in Calm     61% 0 in 0 W/m2
21:49 37.2 °F 25.3 °F 30.3 in Calm     61.8% 0 in 0 W/m2
21:54 36.7 °F 25.3 °F 30.3 in Calm     63% 0 in 0 W/m2
21:59 36.3 °F 25.2 °F 30.3 in Calm     63.7% 0 in 0 W/m2
22:04 36.3 °F 25.7 °F 30.3 in Calm     65% 0 in 0 W/m2
22:09 36.3 °F 25.2 °F 30.3 in Calm     63.7% 0 in 0 W/m2
22:14 36.1 °F 25.2 °F 30.3 in Calm     64.1% 0 in 0 W/m2
22:19 36 °F 25.2 °F 30.3 in Calm     64.2% 0 in 0 W/m2
22:24 36.1 °F 25.2 °F 30.3 in Calm     63.8% 0 in 0 W/m2
22:29 36.1 °F 24.4 °F 30.3 in Calm     62.1% 0 in 0 W/m2
22:34 36.5 °F 24.8 °F 30.3 in Calm     62% 0 in 0 W/m2
22:39 36.7 °F 24.4 °F 30.3 in Calm     61% 0 in 0 W/m2
22:44 36.9 °F 24.3 °F 30.3 in Calm     60.4% 0 in 0 W/m2
22:49 36.9 °F 24.6 °F 30.3 in Calm     61% 0 in 0 W/m2
22:54 36.9 °F 24.8 °F 30.3 in Calm     61.7% 0 in 0 W/m2
22:59 36.9 °F 24.6 °F 30.3 in Calm     60.8% 0 in 0 W/m2
23:04 36.9 °F 24.3 °F 30.3 in Calm     60% 0 in 0 W/m2
23:09 37 °F 24.4 °F 30.3 in Calm     60% 0 in 0 W/m2
23:14 37.4 °F 24.4 °F 30.3 in Calm     59.1% 0 in 0 W/m2
23:19 37.4 °F 24.8 °F 30.3 in Calm     59.7% 0 in 0 W/m2
23:24 37.4 °F 24.6 °F 30.3 in Calm     59.4% 0 in 0 W/m2
23:29 37.6 °F 24.4 °F 30.3 in Calm     58.8% 0 in 0 W/m2
23:34 37.8 °F 24.8 °F 30.3 in Calm     59% 0 in 0 W/m2
23:39 37.9 °F 25 °F 30.3 in Calm     59.2% 0 in 0 W/m2
23:44 37.8 °F 25.5 °F 30.3 in Calm     60.8% 0 in 0 W/m2
23:49 37.6 °F 25.5 °F 30.3 in Calm     61.2% 0 in 0 W/m2
23:54 37.4 °F 25.5 °F 30.3 in Calm     62% 0 in 0 W/m2
23:59 37 °F 25.5 °F 30.3 in Calm     62.6% 0 in 0 W/m2
Juneau County Weather
Compliments of Weather Underground - 2 mb